Time;durP1;ratioP1;P1;durP2;ratioP2;P2;SDS_P1;SDS_P2;PMS_P1;PMS_P2;Temp;Humidity;BMP_temperature;BMP_pressure;BME280_temperature;BME280_humidity;BME280_pressure;Samples;Min_cycle;Max_cycle;Signal;HPM_P1;HPM_P2
2021/09/02 00:00:19;;;;;;;12.30;4.00;;;19.00;59.10;;;;;;4978247;28;20179;-88
2021/09/02 00:02:45;;;;;;;5.53;3.47;;;18.90;59.30;;;;;;4978778;28;20207;-89
2021/09/02 00:05:10;;;;;;;7.67;4.90;;;19.00;59.20;;;;;;4978013;28;20548;-89
2021/09/02 00:07:36;;;;;;;7.00;4.13;;;19.20;59.20;;;;;;4974438;28;20246;-89
2021/09/02 00:10:03;;;;;;;10.10;4.77;;;19.10;59.20;;;;;;4958848;28;20211;-89
2021/09/02 00:12:29;;;;;;;6.28;3.95;;;19.10;59.40;;;;;;4957925;28;20191;-88
2021/09/02 00:14:55;;;;;;;6.80;4.17;;;19.20;59.30;;;;;;4959664;28;20293;-88
2021/09/02 00:17:20;;;;;;;8.00;3.80;;;19.20;59.40;;;;;;4958820;28;20184;-87
2021/09/02 00:19:46;;;;;;;10.50;3.97;;;19.30;59.30;;;;;;4958951;28;20447;-88
2021/09/02 00:22:12;;;;;;;6.70;4.77;;;19.30;59.20;;;;;;4981917;28;20597;-88
2021/09/02 00:24:38;;;;;;;7.68;4.50;;;19.30;58.90;;;;;;4995255;28;20984;-88
2021/09/02 00:27:04;;;;;;;8.13;4.70;;;19.30;59.10;;;;;;4977938;28;20186;-88
2021/09/02 00:29:30;;;;;;;6.63;4.10;;;19.30;59.00;;;;;;4977458;28;20194;-89
2021/09/02 00:31:56;;;;;;;5.07;3.93;;;19.40;59.10;;;;;;4977183;28;20194;-89
2021/09/02 00:34:22;;;;;;;5.60;4.20;;;19.50;59.00;;;;;;4977674;28;20441;-89
2021/09/02 00:36:49;;;;;;;6.50;3.87;;;19.40;59.10;;;;;;4977256;28;20422;-89
2021/09/02 00:39:14;;;;;;;6.15;4.30;;;19.30;59.00;;;;;;4979339;28;20190;-88
2021/09/02 00:41:40;;;;;;;11.97;4.67;;;19.30;59.20;;;;;;4977118;28;20187;-88
2021/09/02 00:44:06;;;;;;;4.77;4.23;;;19.20;59.10;;;;;;4977557;28;20558;-88
2021/09/02 00:46:32;;;;;;;6.40;4.67;;;19.20;59.50;;;;;;4978333;28;20187;-90
2021/09/02 00:48:58;;;;;;;5.30;4.07;;;19.30;59.50;;;;;;4977726;28;20523;-88
2021/09/02 00:51:24;;;;;;;7.77;4.73;;;19.30;59.60;;;;;;4978462;28;20414;-88
2021/09/02 00:53:55;;;;;;;10.70;4.88;;;19.30;59.60;;;;;;4978006;28;20438;-89
2021/09/02 00:56:24;;;;;;;7.00;4.40;;;19.20;59.50;;;;;;4979248;28;20659;-88
2021/09/02 00:58:50;;;;;;;6.82;4.68;;;19.20;59.50;;;;;;4985733;28;20183;-88
2021/09/02 01:01:17;;;;;;;6.90;4.50;;;19.10;59.70;;;;;;5015204;28;20179;-87
2021/09/02 01:03:44;;;;;;;11.23;4.57;;;19.10;59.70;;;;;;4999520;28;20230;-88
2021/09/02 01:06:10;;;;;;;6.93;4.55;;;19.30;59.70;;;;;;4998682;28;20179;-89
2021/09/02 01:08:37;;;;;;;7.57;4.97;;;19.30;59.40;;;;;;5000437;28;20175;-87
2021/09/02 01:11:02;;;;;;;7.10;4.30;;;19.20;59.60;;;;;;4985467;28;20880;-89
2021/09/02 01:13:29;;;;;;;8.70;4.10;;;19.20;59.60;;;;;;4981310;28;20203;-89
2021/09/02 01:19:21;;;;;;;5.65;3.88;;;19.10;59.60;;;;;;4995604;28;20670;-89
2021/09/02 01:21:48;;;;;;;8.27;4.40;;;19.10;59.70;;;;;;4964117;28;20663;-89
2021/09/02 01:24:14;;;;;;;8.32;4.15;;;19.00;59.70;;;;;;4965704;28;20243;-88
2021/09/02 01:26:40;;;;;;;7.68;4.25;;;19.00;59.90;;;;;;4974509;28;20180;-88
2021/09/02 01:29:08;;;;;;;8.30;4.40;;;19.00;60.00;;;;;;4979187;28;20184;-88
2021/09/02 01:31:34;;;;;;;6.55;3.55;;;19.00;60.00;;;;;;4976122;28;20427;-89
2021/09/02 01:34:00;;;;;;;7.17;4.47;;;19.00;60.00;;;;;;4976202;28;20219;-88
2021/09/02 01:36:25;;;;;;;7.57;4.43;;;18.90;60.20;;;;;;4973923;28;20944;-88
2021/09/02 01:38:51;;;;;;;6.70;4.20;;;19.00;60.10;;;;;;4972366;28;20199;-89
2021/09/02 01:41:17;;;;;;;9.67;4.47;;;19.00;60.20;;;;;;4970462;28;20219;-89
2021/09/02 01:43:42;;;;;;;8.77;4.60;;;19.00;60.20;;;;;;4968392;28;20231;-89
2021/09/02 01:46:08;;;;;;;8.70;5.53;;;19.00;60.20;;;;;;4963796;28;20226;-88
2021/09/02 01:48:36;;;;;;;7.33;4.80;;;19.00;60.10;;;;;;4962191;28;20179;-88
2021/09/02 01:51:02;;;;;;;6.63;4.20;;;19.00;60.10;;;;;;4960756;28;20179;-89
2021/09/02 01:53:29;;;;;;;7.63;4.65;;;19.00;60.00;;;;;;4980545;28;20211;-89
2021/09/02 01:55:54;;;;;;;10.88;6.20;;;19.00;59.90;;;;;;4965710;28;20550;-89
2021/09/02 01:58:20;;;;;;;8.97;4.57;;;19.10;60.00;;;;;;4962752;28;20202;-89
2021/09/02 02:00:46;;;;;;;9.63;5.10;;;19.10;60.20;;;;;;4962733;28;20208;-89
2021/09/02 02:03:12;;;;;;;6.80;5.37;;;19.20;60.00;;;;;;4964875;28;20215;-89
2021/09/02 02:05:38;;;;;;;5.40;4.50;;;19.20;59.60;;;;;;4964948;28;20458;-89
2021/09/02 02:08:05;;;;;;;9.88;5.50;;;19.10;59.60;;;;;;4962638;28;20179;-89
2021/09/02 02:10:31;;;;;;;7.20;5.05;;;19.20;59.60;;;;;;4964413;28;20651;-90
2021/09/02 02:13:00;;;;;;;9.57;4.70;;;19.10;59.80;;;;;;4965300;28;20750;-89
2021/09/02 02:15:27;;;;;;;7.13;4.53;;;18.90;60.00;;;;;;4960825;28;20251;-90
2021/09/02 02:17:53;;;;;;;6.95;5.35;;;18.80;60.30;;;;;;4946460;28;20647;-91
2021/09/02 02:20:20;;;;;;;8.85;5.85;;;18.80;60.70;;;;;;4961013;28;20279;-90
2021/09/02 02:22:47;;;;;;;14.38;4.50;;;18.90;60.50;;;;;;4960947;28;20223;-88
2021/09/02 02:25:14;;;;;;;7.22;4.95;;;18.80;60.70;;;;;;4945493;28;20189;-89
2021/09/02 02:27:41;;;;;;;10.43;4.90;;;18.80;60.90;;;;;;4941931;29;20176;-89
2021/09/02 02:30:12;;;;;;;12.55;5.07;;;18.80;60.90;;;;;;4943771;29;20185;-88
2021/09/02 02:32:38;;;;;;;11.57;5.63;;;18.90;61.10;;;;;;4959419;28;20264;-90
2021/09/02 02:35:04;;;;;;;16.02;6.25;;;18.90;60.90;;;;;;4942074;29;20235;-90
2021/09/02 02:37:31;;;;;;;10.90;5.30;;;18.90;60.90;;;;;;4957387;28;20175;-90
2021/09/02 02:39:57;;;;;;;8.60;5.95;;;18.90;60.90;;;;;;4980494;28;20180;-89
2021/09/02 02:42:23;;;;;;;9.57;6.10;;;18.80;61.10;;;;;;4984660;28;20575;-89
2021/09/02 02:44:49;;;;;;;10.77;6.28;;;18.80;61.40;;;;;;5002665;28;20454;-87
2021/09/02 02:47:15;;;;;;;8.35;5.47;;;18.80;61.50;;;;;;5002556;28;20255;-90
2021/09/02 02:49:41;;;;;;;10.20;6.13;;;18.70;62.00;;;;;;5002669;28;20187;-89
2021/09/02 02:52:08;;;;;;;8.00;5.22;;;18.80;62.10;;;;;;5001961;28;20442;-88
2021/09/02 02:54:35;;;;;;;10.63;6.65;;;18.70;62.40;;;;;;5002412;28;20164;-90
2021/09/02 02:57:01;;;;;;;13.30;5.93;;;18.80;62.20;;;;;;5002482;28;20207;-88
2021/09/02 02:59:26;;;;;;;10.87;5.90;;;18.80;62.40;;;;;;5002707;28;20172;-88
2021/09/02 03:01:53;;;;;;;12.33;5.73;;;18.80;62.50;;;;;;5002441;28;20411;-88
2021/09/02 03:04:18;;;;;;;14.07;6.40;;;18.80;62.50;;;;;;5002369;28;20500;-89
2021/09/02 03:06:44;;;;;;;9.40;6.13;;;18.70;62.60;;;;;;5002641;28;20179;-87
2021/09/02 03:09:10;;;;;;;11.60;6.03;;;18.60;62.80;;;;;;5002321;28;20206;-90
2021/09/02 03:11:35;;;;;;;13.90;7.17;;;18.60;63.00;;;;;;5002229;28;20175;-87
2021/09/02 03:14:01;;;;;;;8.53;6.40;;;18.70;63.30;;;;;;5002246;28;20195;-89
2021/09/02 03:16:27;;;;;;;16.83;7.57;;;18.70;63.30;;;;;;5002259;28;20191;-88
2021/09/02 03:18:53;;;;;;;12.90;8.70;;;18.70;63.30;;;;;;5002036;28;20434;-89
2021/09/02 03:21:19;;;;;;;13.55;6.93;;;18.60;63.40;;;;;;4998894;28;20167;-90
2021/09/02 03:23:44;;;;;;;13.37;7.27;;;18.70;63.80;;;;;;4979161;28;20211;-89
2021/09/02 03:26:10;;;;;;;14.37;7.60;;;18.70;63.70;;;;;;4979006;28;20674;-89
2021/09/02 03:28:36;;;;;;;16.00;7.60;;;18.70;63.80;;;;;;4979868;28;20595;-89
2021/09/02 03:31:02;;;;;;;14.90;7.13;;;18.60;63.80;;;;;;4982030;28;20194;-89
2021/09/02 03:33:28;;;;;;;13.67;7.53;;;18.60;64.00;;;;;;4982255;28;20577;-89
2021/09/02 03:35:54;;;;;;;9.60;6.63;;;18.50;64.40;;;;;;4981535;28;20430;-89
2021/09/02 03:38:19;;;;;;;10.27;8.17;;;18.60;64.60;;;;;;4965029;28;20419;-88
2021/09/02 03:40:45;;;;;;;13.87;6.67;;;18.50;64.70;;;;;;4959245;28;20554;-89
2021/09/02 03:43:11;;;;;;;16.88;7.28;;;18.50;65.10;;;;;;4959280;28;20211;-88
2021/09/02 03:45:38;;;;;;;20.30;7.17;;;18.50;65.20;;;;;;4959803;28;20234;-90
2021/09/02 03:48:04;;;;;;;13.65;8.00;;;18.40;65.40;;;;;;4960303;28;20179;-90
2021/09/02 03:50:30;;;;;;;18.33;8.43;;;18.30;65.70;;;;;;4959533;28;20246;-90
2021/09/02 03:52:55;;;;;;;13.53;8.50;;;18.40;65.90;;;;;;4960091;28;20641;-89
2021/09/02 03:55:21;;;;;;;16.20;8.53;;;18.40;65.80;;;;;;4960408;28;20194;-90
2021/09/02 03:57:47;;;;;;;11.97;7.03;;;18.40;65.90;;;;;;4960252;28;20528;-88
2021/09/02 04:00:13;;;;;;;10.57;7.80;;;18.40;66.20;;;;;;4961083;28;20180;-88
2021/09/02 04:02:39;;;;;;;13.73;7.85;;;18.30;66.40;;;;;;4959192;28;20254;-89
2021/09/02 04:05:07;;;;;;;16.98;8.00;;;18.40;66.40;;;;;;4958999;28;20620;-89
2021/09/02 04:07:33;;;;;;;14.65;8.40;;;18.50;66.30;;;;;;4961202;28;20223;-90
2021/09/02 04:10:05;;;;;;;12.20;7.50;;;18.40;66.40;;;;;;4959131;28;20176;-89
2021/09/02 04:12:31;;;;;;;13.80;7.60;;;18.40;66.40;;;;;;4959361;28;20218;-89
2021/09/02 04:14:59;;;;;;;14.10;8.37;;;18.40;66.40;;;;;;4961058;28;20648;-89
2021/09/02 04:17:24;;;;;;;14.15;8.23;;;18.50;67.50;;;;;;4977940;28;20503;-89
2021/09/02 04:19:50;;;;;;;15.70;9.00;;;18.40;66.60;;;;;;4972765;28;20184;-90
2021/09/02 04:22:16;;;;;;;14.80;8.43;;;18.40;66.80;;;;;;4959905;28;20199;-89
2021/09/02 04:24:42;;;;;;;18.08;9.88;;;18.40;67.00;;;;;;4960094;28;20208;-90
2021/09/02 04:27:11;;;;;;;14.20;8.03;;;18.30;67.20;;;;;;4973339;28;20205;-90
2021/09/02 04:29:36;;;;;;;17.13;8.75;;;18.30;67.70;;;;;;4978368;28;20263;-90
2021/09/02 04:32:03;;;;;;;16.40;9.27;;;18.30;67.70;;;;;;4977807;28;20203;-89
2021/09/02 04:34:28;;;;;;;14.43;7.97;;;18.20;67.80;;;;;;4973403;28;20463;-91
2021/09/02 04:36:54;;;;;;;15.33;8.40;;;18.30;67.60;;;;;;4964131;28;20179;-90
2021/09/02 04:39:22;;;;;;;21.07;10.03;;;18.20;68.00;;;;;;4982754;28;20661;-90
2021/09/02 04:41:48;;;;;;;19.00;10.20;;;18.10;68.40;;;;;;4983238;28;20187;-89
2021/09/02 04:44:14;;;;;;;17.03;9.67;;;18.20;68.50;;;;;;4992337;28;20222;-89
2021/09/02 04:46:39;;;;;;;16.93;9.30;;;18.20;68.70;;;;;;5002217;28;20202;-89
2021/09/02 04:49:05;;;;;;;20.73;10.10;;;18.20;68.90;;;;;;5004611;28;20161;-89
2021/09/02 04:51:31;;;;;;;15.20;9.20;;;18.20;68.90;;;;;;5001363;28;20255;-89
2021/09/02 04:53:57;;;;;;;21.63;10.40;;;18.20;69.00;;;;;;4996358;28;20191;-90
2021/09/02 04:56:23;;;;;;;20.50;9.50;;;18.20;70.00;;;;;;4993816;28;20437;-89
2021/09/02 04:58:49;;;;;;;17.58;10.00;;;18.20;69.40;;;;;;4993521;28;20194;-90
2021/09/02 05:01:15;;;;;;;24.00;10.38;;;18.20;69.50;;;;;;4985203;28;20230;-90
2021/09/02 05:03:42;;;;;;;24.67;10.20;;;18.20;69.60;;;;;;4978403;28;20231;-90
2021/09/02 05:06:08;;;;;;;13.93;9.30;;;18.10;69.70;;;;;;4980353;28;20182;-90
2021/09/02 05:08:33;;;;;;;18.10;10.67;;;18.20;69.60;;;;;;4980569;28;20180;-92
2021/09/02 05:10:59;;;;;;;23.03;10.63;;;18.30;69.60;;;;;;4981329;28;20200;-91
2021/09/02 05:13:25;;;;;;;18.60;10.90;;;18.30;69.50;;;;;;4984655;28;20208;-91
2021/09/02 05:15:51;;;;;;;20.87;11.40;;;18.20;70.30;;;;;;4984905;28;20446;-91
2021/09/02 05:18:17;;;;;;;18.50;10.07;;;18.30;69.90;;;;;;4984931;28;20248;-92
2021/09/02 05:20:42;;;;;;;22.10;10.90;;;18.40;70.40;;;;;;4982572;28;20223;-91
2021/09/02 05:23:08;;;;;;;19.03;11.20;;;18.30;69.70;;;;;;4977224;28;20467;-91
2021/09/02 05:25:34;;;;;;;22.00;11.20;;;18.40;69.80;;;;;;4979709;28;20490;-91
2021/09/02 05:28:00;;;;;;;18.37;10.90;;;18.40;69.60;;;;;;4978255;28;20176;-91
2021/09/02 05:30:25;;;;;;;24.67;12.33;;;18.40;69.60;;;;;;4977589;28;20195;-91
2021/09/02 05:32:51;;;;;;;20.67;11.37;;;18.30;69.90;;;;;;4975868;28;20218;-91
2021/09/02 05:35:18;;;;;;;25.43;11.10;;;18.20;69.80;;;;;;4975860;28;20176;-91
2021/09/02 05:37:43;;;;;;;21.95;11.68;;;18.30;70.00;;;;;;4985106;28;20255;-91
2021/09/02 05:40:10;;;;;;;27.53;12.90;;;18.30;70.00;;;;;;4995881;28;20175;-91
2021/09/02 05:42:36;;;;;;;21.58;12.60;;;18.30;70.00;;;;;;4999001;28;20195;-91
2021/09/02 05:45:06;;;;;;;22.63;11.55;;;18.40;70.00;;;;;;5000696;28;20210;-90
2021/09/02 05:47:32;;;;;;;21.63;11.80;;;18.30;69.90;;;;;;4976018;28;20203;-92
2021/09/02 05:49:58;;;;;;;19.97;10.73;;;18.30;69.90;;;;;;4966462;28;20259;-91
2021/09/02 05:52:24;;;;;;;19.45;10.45;;;18.30;69.80;;;;;;4966831;28;20494;-91
2021/09/02 05:54:53;;;;;;;24.50;11.27;;;18.40;70.00;;;;;;4966411;28;20188;-94
2021/09/02 05:57:21;;;;;;;21.25;11.75;;;18.40;69.80;;;;;;4966346;28;20183;-90
2021/09/02 05:59:48;;;;;;;20.15;10.52;;;18.30;70.10;;;;;;4968080;28;20556;-91
2021/09/02 06:02:14;;;;;;;18.55;11.32;;;18.40;69.90;;;;;;4972719;28;20208;-91
2021/09/02 06:04:40;;;;;;;21.45;12.57;;;18.30;69.80;;;;;;4975114;28;20309;-91
2021/09/02 06:07:06;;;;;;;20.10;11.50;;;18.30;70.00;;;;;;4975931;28;20199;-90
2021/09/02 06:09:32;;;;;;;25.83;12.00;;;18.30;70.40;;;;;;4974500;28;20447;-89
2021/09/02 06:11:57;;;;;;;18.77;11.30;;;18.30;70.40;;;;;;4988562;28;20507;-89
2021/09/02 06:14:23;;;;;;;23.30;12.23;;;18.50;70.30;;;;;;4970923;28;20878;-89
2021/09/02 06:16:49;;;;;;;18.60;11.00;;;18.50;70.20;;;;;;4987893;28;20184;-90
2021/09/02 06:19:15;;;;;;;16.03;11.30;;;18.60;70.10;;;;;;4971838;28;20203;-90
2021/09/02 06:21:40;;;;;;;18.80;10.73;;;18.60;69.90;;;;;;4963248;28;20180;-90
2021/09/02 06:24:06;;;;;;;19.37;11.17;;;18.50;70.00;;;;;;4960849;28;20801;-90
2021/09/02 06:26:32;;;;;;;15.60;10.57;;;18.50;69.40;;;;;;4960944;28;20258;-90
2021/09/02 06:28:57;;;;;;;19.83;12.10;;;18.50;69.30;;;;;;4961741;28;20176;-88
2021/09/02 06:31:23;;;;;;;23.97;11.87;;;18.60;69.30;;;;;;4963457;28;20252;-88
2021/09/02 06:33:50;;;;;;;20.33;11.07;;;18.70;69.30;;;;;;4965691;28;20227;-88
2021/09/02 06:36:18;;;;;;;18.15;12.95;;;18.70;69.10;;;;;;4964272;28;20215;-88
2021/09/02 06:38:46;;;;;;;20.50;11.85;;;18.70;68.80;;;;;;4982331;28;20193;-89
2021/09/02 06:41:13;;;;;;;20.50;12.57;;;18.70;68.10;;;;;;4983088;28;20189;-89
2021/09/02 06:43:39;;;;;;;16.75;10.52;;;18.80;67.70;;;;;;4983017;28;20254;-88
2021/09/02 06:46:04;;;;;;;23.93;11.70;;;18.80;66.50;;;;;;4983038;28;20206;-88
2021/09/02 06:48:30;;;;;;;18.57;10.40;;;18.70;66.00;;;;;;4983987;28;20274;-88
2021/09/02 06:50:56;;;;;;;18.10;10.50;;;18.70;66.00;;;;;;4984035;28;20254;-89
2021/09/02 06:53:22;;;;;;;19.90;11.43;;;18.70;66.20;;;;;;4983665;28;20457;-88
2021/09/02 06:55:48;;;;;;;21.33;10.88;;;18.80;66.10;;;;;;4989795;28;20191;-88
2021/09/02 06:58:14;;;;;;;13.83;10.40;;;18.80;65.80;;;;;;4986524;28;20233;-88
2021/09/02 07:00:39;;;;;;;18.03;11.63;;;18.90;65.90;;;;;;4983596;28;20426;-87
2021/09/02 07:03:05;;;;;;;19.63;11.77;;;18.90;65.30;;;;;;4981377;28;20270;-87
2021/09/02 07:05:31;;;;;;;20.90;10.43;;;19.00;65.00;;;;;;4998769;28;20318;-89
2021/09/02 07:07:57;;;;;;;18.67;10.90;;;18.90;64.80;;;;;;4979272;28;20184;-89
2021/09/02 07:10:22;;;;;;;18.83;9.97;;;18.80;64.50;;;;;;4979392;28;20230;-89
2021/09/02 07:12:48;;;;;;;19.00;10.87;;;18.80;64.80;;;;;;4978965;28;20211;-89
2021/09/02 07:15:16;;;;;;;20.03;11.07;;;19.00;64.10;;;;;;4981280;28;20926;-88
2021/09/02 07:17:42;;;;;;;21.92;10.90;;;19.20;63.80;;;;;;4982553;28;20171;-88
2021/09/02 07:20:08;;;;;;;21.90;10.33;;;19.40;63.00;;;;;;4979674;28;20197;-89
2021/09/02 07:22:34;;;;;;;17.20;10.15;;;19.40;61.80;;;;;;4980659;28;20273;-88
2021/09/02 07:25:00;;;;;;;24.60;10.53;;;19.50;61.10;;;;;;4998322;28;20567;-89
2021/09/02 07:27:25;;;;;;;18.07;10.57;;;19.70;60.50;;;;;;4979591;28;20179;-88
2021/09/02 07:29:51;;;;;;;18.50;9.77;;;19.60;60.00;;;;;;4987663;28;20183;-88
2021/09/02 07:32:17;;;;;;;23.30;10.90;;;19.80;60.00;;;;;;4983571;28;20214;-88
2021/09/02 07:34:43;;;;;;;20.03;10.60;;;19.80;59.00;;;;;;4982338;28;20721;-89
2021/09/02 07:37:09;;;;;;;16.80;9.77;;;19.90;57.80;;;;;;4976074;28;20523;-88
2021/09/02 07:39:37;;;;;;;20.13;10.50;;;20.20;58.30;;;;;;4962023;28;20184;-89
2021/09/02 07:42:06;;;;;;;18.00;10.63;;;20.20;57.90;;;;;;4961152;28;20186;-89
2021/09/02 07:44:33;;;;;;;13.70;8.75;;;20.30;56.20;;;;;;4961225;28;20230;-89
2021/09/02 07:47:00;;;;;;;17.23;10.02;;;20.20;55.30;;;;;;4962188;28;20206;-89
2021/09/02 07:49:26;;;;;;;10.20;8.20;;;20.20;54.30;;;;;;4963747;28;20617;-89
2021/09/02 07:51:51;;;;;;;15.47;9.10;;;20.40;54.80;;;;;;4962512;28;20230;-88
2021/09/02 07:54:17;;;;;;;13.63;8.80;;;20.50;54.00;;;;;;4962301;28;20260;-89
2021/09/02 07:56:43;;;;;;;14.70;9.57;;;20.40;54.30;;;;;;4960335;28;20179;-89
2021/09/02 07:59:09;;;;;;;14.17;9.20;;;20.40;53.80;;;;;;4976771;28;20176;-88
2021/09/02 08:01:34;;;;;;;13.20;9.15;;;20.70;53.70;;;;;;4959264;28;20176;-88
2021/09/02 08:04:00;;;;;;;11.20;7.30;;;20.80;52.80;;;;;;4961121;28;20230;-87
2021/09/02 08:06:26;;;;;;;13.53;8.43;;;20.80;52.60;;;;;;4980816;28;20172;-87
2021/09/02 08:08:52;;;;;;;20.17;9.13;;;20.80;52.70;;;;;;4961915;28;20595;-87
2021/09/02 08:11:18;;;;;;;14.50;9.33;;;20.70;51.80;;;;;;4967508;28;20226;-87
2021/09/02 08:13:44;;;;;;;11.50;8.60;;;20.70;51.50;;;;;;4965583;28;20286;-86
2021/09/02 08:16:10;;;;;;;15.53;9.07;;;20.60;52.10;;;;;;4962792;28;20427;-86
2021/09/02 08:18:36;;;;;;;15.40;8.20;;;20.60;50.50;;;;;;4962082;28;20423;-86
2021/09/02 08:21:02;;;;;;;17.63;9.80;;;20.60;50.80;;;;;;4961624;28;20947;-86
2021/09/02 08:23:27;;;;;;;11.87;8.30;;;20.70;51.10;;;;;;4961311;28;20467;-86
2021/09/02 08:25:55;;;;;;;15.07;9.13;;;20.80;51.60;;;;;;4962370;28;20414;-87
2021/09/02 08:28:21;;;;;;;20.33;9.33;;;21.10;51.50;;;;;;4963854;28;20419;-88
2021/09/02 08:30:47;;;;;;;20.63;10.10;;;21.20;51.10;;;;;;4964448;29;20440;-87
2021/09/02 08:33:13;;;;;;;10.83;8.03;;;21.20;50.70;;;;;;4960816;28;20447;-86
2021/09/02 08:35:39;;;;;;;15.67;8.93;;;21.20;51.00;;;;;;4957718;29;20188;-87
2021/09/02 08:38:07;;;;;;;18.97;10.10;;;21.20;50.60;;;;;;4944702;29;20420;-87
2021/09/02 08:40:36;;;;;;;11.43;9.03;;;21.10;50.40;;;;;;4957388;28;20531;-86
2021/09/02 08:43:02;;;;;;;16.00;9.70;;;21.20;50.40;;;;;;4958718;28;20467;-87
2021/09/02 08:45:30;;;;;;;16.07;9.93;;;21.30;49.90;;;;;;4941072;28;20506;-87
2021/09/02 08:47:56;;;;;;;19.20;9.10;;;21.30;49.40;;;;;;4946225;29;20422;-87
2021/09/02 08:50:25;;;;;;;14.37;9.80;;;21.30;49.60;;;;;;4946225;28;20844;-86
2021/09/02 08:52:52;;;;;;;13.60;9.07;;;21.20;48.70;;;;;;4943810;29;20929;-86
2021/09/02 08:55:18;;;;;;;16.67;9.63;;;21.30;49.10;;;;;;4945966;29;20416;-86
2021/09/02 08:57:47;;;;;;;15.17;8.93;;;21.30;48.50;;;;;;4960322;28;20415;-86
2021/09/02 09:00:14;;;;;;;16.90;9.33;;;21.40;48.90;;;;;;4976784;29;20440;-86
2021/09/02 09:02:45;;;;;;;15.33;9.60;;;21.50;49.40;;;;;;4964515;28;20450;-87
2021/09/02 09:05:17;;;;;;;12.53;9.60;;;21.70;49.00;;;;;;4943849;28;20435;-86
2021/09/02 09:07:46;;;;;;;17.00;9.13;;;21.60;48.80;;;;;;4948293;28;20420;-87
2021/09/02 09:10:14;;;;;;;16.17;9.30;;;21.60;48.60;;;;;;4964544;28;21085;-87
2021/09/02 09:12:43;;;;;;;21.00;9.27;;;21.70;49.00;;;;;;4963173;28;20541;-87
2021/09/02 09:15:17;;;;;;;26.80;10.93;;;21.50;49.00;;;;;;4963523;28;20415;-87
2021/09/02 09:17:43;;;;;;;19.77;10.67;;;21.20;49.80;;;;;;4962974;28;20419;-87
2021/09/02 09:20:11;;;;;;;20.53;11.97;;;21.30;49.80;;;;;;4962163;28;20447;-86
2021/09/02 09:22:37;;;;;;;18.27;11.70;;;21.10;50.00;;;;;;4980768;28;20431;-85
2021/09/02 09:25:11;;;;;;;25.40;11.83;;;21.00;50.10;;;;;;4981520;28;20477;-84
2021/09/02 09:27:44;;;;;;;22.27;12.00;;;20.90;50.90;;;;;;4981583;28;20423;-85
2021/09/02 09:30:19;;;;;;;23.80;12.75;;;20.70;51.20;;;;;;4982974;28;20187;-85
2021/09/02 09:32:49;;;;;;;24.15;12.00;;;20.70;51.50;;;;;;5001593;28;20206;-86
2021/09/02 09:35:21;;;;;;;21.27;11.20;;;20.70;51.90;;;;;;4985157;28;20172;-86
2021/09/02 09:38:11;;;;;;;22.00;11.32;;;20.50;52.50;;;;;;4985123;28;20176;-85
2021/09/02 09:40:43;;;;;;;18.45;11.70;;;20.60;53.00;;;;;;4984814;28;20187;-86
2021/09/02 09:43:14;;;;;;;21.00;11.80;;;20.70;53.10;;;;;;4984658;28;20207;-86
2021/09/02 09:45:46;;;;;;;22.92;11.65;;;20.70;53.10;;;;;;5001788;28;20163;-86
2021/09/02 09:48:32;;;;;;;19.05;10.40;;;20.70;53.00;;;;;;4984872;28;20168;-86
2021/09/02 09:51:12;;;;;;;21.52;12.63;;;20.70;53.60;;;;;;4983935;28;20172;-86
2021/09/02 09:53:40;;;;;;;16.77;10.57;;;20.70;53.30;;;;;;4977949;28;20183;-87
2021/09/02 09:56:07;;;;;;;17.23;10.40;;;20.80;53.20;;;;;;4976435;28;20419;-87
2021/09/02 09:58:36;;;;;;;23.53;9.60;;;21.00;53.10;;;;;;4974437;28;20176;-86
2021/09/02 10:01:04;;;;;;;14.60;9.80;;;21.20;52.50;;;;;;4981459;28;20412;-86
2021/09/02 10:03:32;;;;;;;19.10;10.10;;;21.30;52.10;;;;;;4962240;28;21046;-87
2021/09/02 10:06:11;;;;;;;21.33;10.33;;;21.40;51.60;;;;;;4963969;28;20513;-87
2021/09/02 10:08:41;;;;;;;18.10;9.40;;;21.40;51.50;;;;;;4979871;28;20408;-87
2021/09/02 10:11:10;;;;;;;14.40;11.40;;;21.30;51.40;;;;;;4980322;28;20910;-86
2021/09/02 10:13:37;;;;;;;18.30;10.57;;;21.50;51.70;;;;;;4982956;28;20515;-86
2021/09/02 10:16:05;;;;;;;13.53;9.53;;;21.50;51.70;;;;;;4963630;28;20427;-85
2021/09/02 10:18:33;;;;;;;17.70;9.18;;;21.40;52.10;;;;;;4984310;28;20483;-83
2021/09/02 10:21:05;;;;;;;16.77;9.03;;;21.60;52.10;;;;;;4965273;28;20194;-84
2021/09/02 10:23:31;;;;;;;13.97;9.83;;;21.90;52.20;;;;;;4962919;28;21057;-85
2021/09/02 10:25:57;;;;;;;12.93;9.60;;;21.80;51.30;;;;;;4963283;28;20457;-85
2021/09/02 10:28:29;;;;;;;18.50;9.70;;;22.00;50.40;;;;;;4963379;28;20275;-85
2021/09/02 10:31:01;;;;;;;15.07;9.80;;;21.80;50.20;;;;;;4981966;28;20482;-85
2021/09/02 10:33:33;;;;;;;13.40;9.73;;;21.90;50.80;;;;;;4963892;28;20486;-85
2021/09/02 10:36:00;;;;;;;18.60;10.10;;;21.90;50.90;;;;;;4963123;28;20435;-85
2021/09/02 10:38:54;;;;;;;19.83;10.73;;;22.30;50.60;;;;;;4978832;28;20486;-85
2021/09/02 10:41:40;;;;;;;24.00;10.30;;;22.20;50.30;;;;;;4977698;28;20427;-84
2021/09/02 10:44:17;;;;;;;16.60;9.60;;;22.30;50.60;;;;;;4984895;28;20802;-85
2021/09/02 10:46:49;;;;;;;18.60;10.53;;;22.10;50.90;;;;;;4984809;28;20425;-85
2021/09/02 10:49:29;;;;;;;16.90;9.80;;;22.30;50.60;;;;;;4984887;28;20425;-85
2021/09/02 10:52:04;;;;;;;12.67;8.00;;;22.30;51.00;;;;;;5002000;28;20866;-86
2021/09/02 10:54:35;;;;;;;14.70;9.20;;;22.60;49.20;;;;;;4985368;28;20422;-85
2021/09/02 10:57:13;;;;;;;12.80;9.70;;;22.80;50.20;;;;;;4985386;28;20509;-85
2021/09/02 10:59:39;;;;;;;13.90;9.27;;;22.80;48.60;;;;;;4985084;28;20454;-85
2021/09/02 11:02:11;;;;;;;15.50;9.20;;;22.90;49.40;;;;;;4988030;28;20422;-85
2021/09/02 11:04:38;;;;;;;23.53;10.77;;;22.60;49.10;;;;;;4989496;28;20203;-85
2021/09/02 11:07:05;;;;;;;27.43;11.40;;;22.40;49.40;;;;;;5004824;28;20906;-84
2021/09/02 11:09:35;;;;;;;21.77;11.03;;;22.30;49.80;;;;;;4984670;28;20501;-85
2021/09/02 11:12:02;;;;;;;23.80;12.00;;;22.30;50.20;;;;;;4984362;28;20411;-85
2021/09/02 11:14:27;;;;;;;21.23;11.70;;;22.20;50.60;;;;;;4967214;28;20439;-85
2021/09/02 11:16:54;;;;;;;13.67;9.67;;;22.30;50.50;;;;;;4966034;28;20931;-84
2021/09/02 11:19:32;;;;;;;13.30;10.10;;;22.20;50.50;;;;;;4965984;28;20215;-85
2021/09/02 11:22:15;;;;;;;19.20;11.20;;;22.20;50.30;;;;;;4965486;28;20899;-85
2021/09/02 11:24:43;;;;;;;14.37;9.50;;;22.30;50.60;;;;;;4965995;28;20486;-85
2021/09/02 11:27:11;;;;;;;23.70;11.00;;;22.40;49.80;;;;;;4966135;28;20422;-85
2021/09/02 11:29:37;;;;;;;14.33;8.80;;;22.40;50.70;;;;;;4984359;28;20411;-85
2021/09/02 11:32:11;;;;;;;14.43;10.10;;;22.80;50.10;;;;;;4981488;28;20449;-84
2021/09/02 11:34:38;;;;;;;16.33;9.93;;;22.80;49.60;;;;;;4987687;28;20257;-85
2021/09/02 11:37:04;;;;;;;18.13;9.73;;;22.80;49.20;;;;;;5003034;28;20419;-84
2021/09/02 11:39:32;;;;;;;15.47;9.80;;;23.00;48.60;;;;;;4980114;28;21140;-84
2021/09/02 11:42:09;;;;;;;13.97;10.07;;;23.20;48.50;;;;;;4965056;28;20943;-84
2021/09/02 11:44:38;;;;;;;12.53;7.83;;;23.40;48.50;;;;;;4967270;28;20455;-83
2021/09/02 11:47:09;;;;;;;13.70;10.30;;;23.40;49.10;;;;;;4964772;28;20816;-83
2021/09/02 11:49:35;;;;;;;11.20;9.23;;;23.40;48.40;;;;;;4963210;28;20431;-85
2021/09/02 11:52:03;;;;;;;18.93;11.10;;;23.20;48.60;;;;;;4964914;28;20832;-85
2021/09/02 11:54:33;;;;;;;19.20;11.37;;;23.20;48.90;;;;;;4963236;28;20426;-86
2021/09/02 11:56:59;;;;;;;23.13;12.37;;;23.10;49.00;;;;;;4980440;28;20407;-85
2021/09/02 11:59:25;;;;;;;13.77;10.73;;;23.30;48.90;;;;;;4965080;28;20434;-84
2021/09/02 12:01:52;;;;;;;16.27;11.73;;;23.30;48.70;;;;;;4964791;28;20431;-85
2021/09/02 12:04:28;;;;;;;20.87;12.90;;;23.20;48.20;;;;;;4965513;28;20498;-85
2021/09/02 12:07:02;;;;;;;17.33;11.30;;;23.00;47.70;;;;;;4966891;28;20419;-84
2021/09/02 12:09:35;;;;;;;14.93;10.90;;;22.70;48.20;;;;;;4973750;28;20418;-84
2021/09/02 12:12:02;;;;;;;16.47;10.70;;;22.90;48.40;;;;;;5001555;28;20415;-85
2021/09/02 12:14:31;;;;;;;18.63;12.00;;;22.80;47.80;;;;;;4994868;28;20418;-84
2021/09/02 12:17:07;;;;;;;17.57;10.50;;;22.70;48.20;;;;;;5000392;28;20442;-83
2021/09/02 12:19:52;;;;;;;12.40;8.80;;;22.80;48.10;;;;;;4984784;28;20410;-85
2021/09/02 12:22:19;;;;;;;15.00;10.90;;;23.20;47.80;;;;;;4984936;28;20517;-85
2021/09/02 12:24:45;;;;;;;22.93;12.97;;;23.40;47.10;;;;;;5001313;28;20450;-85
2021/09/02 12:27:11;;;;;;;23.17;13.40;;;23.40;47.50;;;;;;5003443;28;20410;-84
2021/09/02 12:29:50;;;;;;;19.47;13.00;;;23.20;47.90;;;;;;4987493;28;20418;-84
2021/09/02 12:32:20;;;;;;;17.60;12.50;;;23.30;48.60;;;;;;4987809;28;20218;-84
2021/09/02 12:34:47;;;;;;;33.47;12.47;;;23.30;48.50;;;;;;4990130;28;20497;-84
2021/09/02 12:37:16;;;;;;;16.40;12.43;;;23.30;48.60;;;;;;4984390;28;20769;-85
2021/09/02 12:39:54;;;;;;;16.23;12.33;;;23.40;48.50;;;;;;4980786;28;20487;-83